sensor_id;sensor_type;location;lat;lon;timestamp;temperature;humidity
55795;DHT22;41716;51.910;4.430;2023-02-25T00:01:42;5.90;99.90
55795;DHT22;41716;51.910;4.430;2023-02-25T00:06:44;5.60;99.90
55795;DHT22;41716;51.910;4.430;2023-02-25T00:11:46;5.90;99.90
55795;DHT22;41716;51.910;4.430;2023-02-25T00:16:49;5.50;99.90
55795;DHT22;41716;51.910;4.430;2023-02-25T00:21:50;5.70;99.90
55795;DHT22;41716;51.910;4.430;2023-02-25T00:26:52;5.90;99.90
55795;DHT22;41716;51.910;4.430;2023-02-25T00:31:55;5.70;99.90
55795;DHT22;41716;51.910;4.430;2023-02-25T00:36:59;5.90;99.90
55795;DHT22;41716;51.910;4.430;2023-02-25T00:42:01;5.80;99.90
55795;DHT22;41716;51.910;4.430;2023-02-25T00:47:04;6.00;99.90
55795;DHT22;41716;51.910;4.430;2023-02-25T00:52:06;5.90;99.90
55795;DHT22;41716;51.910;4.430;2023-02-25T00:57:08;6.00;99.90
55795;DHT22;41716;51.910;4.430;2023-02-25T01:02:10;6.00;99.90
55795;DHT22;41716;51.910;4.430;2023-02-25T01:07:12;6.00;99.90
55795;DHT22;41716;51.910;4.430;2023-02-25T01:12:14;6.00;99.90
55795;DHT22;41716;51.910;4.430;2023-02-25T01:17:17;5.80;99.90
55795;DHT22;41716;51.910;4.430;2023-02-25T01:22:19;5.90;99.90
55795;DHT22;41716;51.910;4.430;2023-02-25T01:27:21;5.70;99.90
55795;DHT22;41716;51.910;4.430;2023-02-25T01:32:24;5.90;99.90
55795;DHT22;41716;51.910;4.430;2023-02-25T01:37:25;5.90;99.90
55795;DHT22;41716;51.910;4.430;2023-02-25T01:42:27;5.80;99.90
55795;DHT22;41716;51.910;4.430;2023-02-25T01:47:30;5.60;99.90
55795;DHT22;41716;51.910;4.430;2023-02-25T01:52:32;5.80;99.90
55795;DHT22;41716;51.910;4.430;2023-02-25T01:57:35;5.70;99.90
55795;DHT22;41716;51.910;4.430;2023-02-25T02:02:38;5.80;99.90
55795;DHT22;41716;51.910;4.430;2023-02-25T02:07:40;5.90;99.90
55795;DHT22;41716;51.910;4.430;2023-02-25T02:12:42;5.80;99.90
55795;DHT22;41716;51.910;4.430;2023-02-25T02:17:47;5.90;99.90
55795;DHT22;41716;51.910;4.430;2023-02-25T02:22:53;5.70;99.90
55795;DHT22;41716;51.910;4.430;2023-02-25T02:28:00;5.70;99.90
55795;DHT22;41716;51.910;4.430;2023-02-25T02:33:09;5.50;99.90
55795;DHT22;41716;51.910;4.430;2023-02-25T02:38:13;5.60;99.90
55795;DHT22;41716;51.910;4.430;2023-02-25T02:43:20;5.10;99.90
55795;DHT22;41716;51.910;4.430;2023-02-25T02:48:27;5.40;99.90
55795;DHT22;41716;51.910;4.430;2023-02-25T02:53:30;5.30;99.90
55795;DHT22;41716;51.910;4.430;2023-02-25T02:58:34;5.20;99.90
55795;DHT22;41716;51.910;4.430;2023-02-25T03:03:39;5.00;99.90
55795;DHT22;41716;51.910;4.430;2023-02-25T03:08:44;5.00;99.90
55795;DHT22;41716;51.910;4.430;2023-02-25T03:13:47;5.10;99.90
55795;DHT22;41716;51.910;4.430;2023-02-25T03:18:50;5.40;99.90
55795;DHT22;41716;51.910;4.430;2023-02-25T03:23:53;5.50;99.90
55795;DHT22;41716;51.910;4.430;2023-02-25T03:28:55;5.10;99.90
55795;DHT22;41716;51.910;4.430;2023-02-25T03:33:59;5.50;99.90
55795;DHT22;41716;51.910;4.430;2023-02-25T03:39:04;5.30;99.90
55795;DHT22;41716;51.910;4.430;2023-02-25T03:44:09;5.40;99.90
55795;DHT22;41716;51.910;4.430;2023-02-25T03:49:15;5.60;99.90
55795;DHT22;41716;51.910;4.430;2023-02-25T03:54:19;5.00;99.90
55795;DHT22;41716;51.910;4.430;2023-02-25T03:59:20;5.40;99.90
55795;DHT22;41716;51.910;4.430;2023-02-25T04:04:26;4.80;99.90
55795;DHT22;41716;51.910;4.430;2023-02-25T04:09:28;4.80;99.90
55795;DHT22;41716;51.910;4.430;2023-02-25T04:14:29;5.10;99.90
55795;DHT22;41716;51.910;4.430;2023-02-25T04:19:32;5.10;99.90
55795;DHT22;41716;51.910;4.430;2023-02-25T04:24:34;5.10;99.90
55795;DHT22;41716;51.910;4.430;2023-02-25T04:29:35;5.00;99.90
55795;DHT22;41716;51.910;4.430;2023-02-25T04:34:38;5.10;99.90
55795;DHT22;41716;51.910;4.430;2023-02-25T04:39:40;5.40;99.90
55795;DHT22;41716;51.910;4.430;2023-02-25T04:44:41;5.20;99.90
55795;DHT22;41716;51.910;4.430;2023-02-25T04:49:44;5.50;99.90
55795;DHT22;41716;51.910;4.430;2023-02-25T04:54:46;5.40;99.90
55795;DHT22;41716;51.910;4.430;2023-02-25T04:59:47;5.40;99.90
55795;DHT22;41716;51.910;4.430;2023-02-25T05:04:51;5.20;99.90
55795;DHT22;41716;51.910;4.430;2023-02-25T05:09:52;5.20;99.90
55795;DHT22;41716;51.910;4.430;2023-02-25T05:14:54;5.20;99.90
55795;DHT22;41716;51.910;4.430;2023-02-25T05:19:56;5.50;99.90
55795;DHT22;41716;51.910;4.430;2023-02-25T05:24:58;5.50;99.90
55795;DHT22;41716;51.910;4.430;2023-02-25T05:30:00;5.30;99.90
55795;DHT22;41716;51.910;4.430;2023-02-25T05:35:03;5.50;99.90
55795;DHT22;41716;51.910;4.430;2023-02-25T05:40:08;5.30;99.90
55795;DHT22;41716;51.910;4.430;2023-02-25T05:45:13;5.50;99.90
55795;DHT22;41716;51.910;4.430;2023-02-25T05:50:16;5.40;99.90
55795;DHT22;41716;51.910;4.430;2023-02-25T05:55:17;5.20;99.90
55795;DHT22;41716;51.910;4.430;2023-02-25T06:00:19;5.40;99.90
55795;DHT22;41716;51.910;4.430;2023-02-25T06:05:22;5.10;99.90
55795;DHT22;41716;51.910;4.430;2023-02-25T06:10:24;5.20;99.90
55795;DHT22;41716;51.910;4.430;2023-02-25T06:15:26;5.20;99.90
55795;DHT22;41716;51.910;4.430;2023-02-25T06:20:28;5.60;99.90
55795;DHT22;41716;51.910;4.430;2023-02-25T06:25:30;5.20;99.90
55795;DHT22;41716;51.910;4.430;2023-02-25T06:30:32;5.30;99.90
55795;DHT22;41716;51.910;4.430;2023-02-25T06:35:35;5.30;99.90
55795;DHT22;41716;51.910;4.430;2023-02-25T06:40:36;5.20;99.90
55795;DHT22;41716;51.910;4.430;2023-02-25T06:45:38;5.10;99.90
55795;DHT22;41716;51.910;4.430;2023-02-25T06:50:41;4.80;99.90
55795;DHT22;41716;51.910;4.430;2023-02-25T06:55:42;4.90;99.90
55795;DHT22;41716;51.910;4.430;2023-02-25T07:00:44;5.20;99.90
55795;DHT22;41716;51.910;4.430;2023-02-25T07:05:47;4.90;99.90
55795;DHT22;41716;51.910;4.430;2023-02-25T07:10:48;5.20;99.90
55795;DHT22;41716;51.910;4.430;2023-02-25T07:15:50;5.10;99.90
55795;DHT22;41716;51.910;4.430;2023-02-25T07:20:53;5.10;99.90
55795;DHT22;41716;51.910;4.430;2023-02-25T07:25:54;5.20;99.90
55795;DHT22;41716;51.910;4.430;2023-02-25T07:30:58;5.20;99.90
55795;DHT22;41716;51.910;4.430;2023-02-25T07:36:01;5.30;99.90
55795;DHT22;41716;51.910;4.430;2023-02-25T07:41:03;4.70;99.90
55795;DHT22;41716;51.910;4.430;2023-02-25T07:46:05;5.10;99.90
55795;DHT22;41716;51.910;4.430;2023-02-25T07:51:09;5.00;99.90
55795;DHT22;41716;51.910;4.430;2023-02-25T07:56:11;5.20;99.90
55795;DHT22;41716;51.910;4.430;2023-02-25T08:01:16;5.30;99.90
55795;DHT22;41716;51.910;4.430;2023-02-25T08:06:20;5.50;99.90
55795;DHT22;41716;51.910;4.430;2023-02-25T08:11:23;5.60;99.90
55795;DHT22;41716;51.910;4.430;2023-02-25T08:16:25;6.40;99.90
55795;DHT22;41716;51.910;4.430;2023-02-25T08:21:28;6.70;99.90
55795;DHT22;41716;51.910;4.430;2023-02-25T08:26:30;7.70;99.90
55795;DHT22;41716;51.910;4.430;2023-02-25T08:31:32;7.80;99.90
55795;DHT22;41716;51.910;4.430;2023-02-25T08:36:34;8.70;99.90
55795;DHT22;41716;51.910;4.430;2023-02-25T08:41:36;9.30;99.90
55795;DHT22;41716;51.910;4.430;2023-02-25T08:46:38;9.30;99.90
55795;DHT22;41716;51.910;4.430;2023-02-25T08:51:41;9.60;99.90
55795;DHT22;41716;51.910;4.430;2023-02-25T08:56:42;9.90;99.90
55795;DHT22;41716;51.910;4.430;2023-02-25T09:01:44;10.60;99.90
55795;DHT22;41716;51.910;4.430;2023-02-25T09:06:49;10.30;99.90
55795;DHT22;41716;51.910;4.430;2023-02-25T09:11:52;10.20;99.90
55795;DHT22;41716;51.910;4.430;2023-02-25T09:16:53;9.50;99.90
55795;DHT22;41716;51.910;4.430;2023-02-25T09:21:56;9.60;99.90
55795;DHT22;41716;51.910;4.430;2023-02-25T09:26:58;9.50;99.90
55795;DHT22;41716;51.910;4.430;2023-02-25T09:32:00;9.80;99.90
55795;DHT22;41716;51.910;4.430;2023-02-25T09:37:03;10.00;99.90
55795;DHT22;41716;51.910;4.430;2023-02-25T09:42:05;10.00;99.90
55795;DHT22;41716;51.910;4.430;2023-02-25T09:47:10;9.50;99.90
55795;DHT22;41716;51.910;4.430;2023-02-25T09:52:15;9.20;99.90
55795;DHT22;41716;51.910;4.430;2023-02-25T09:57:18;8.80;99.90
55795;DHT22;41716;51.910;4.430;2023-02-25T10:02:23;8.70;99.90
55795;DHT22;41716;51.910;4.430;2023-02-25T10:07:31;9.20;99.90
55795;DHT22;41716;51.910;4.430;2023-02-25T10:12:33;11.30;99.90
55795;DHT22;41716;51.910;4.430;2023-02-25T10:17:40;11.90;99.90
55795;DHT22;41716;51.910;4.430;2023-02-25T10:22:50;13.00;99.90
55795;DHT22;41716;51.910;4.430;2023-02-25T10:27:56;13.90;99.90
55795;DHT22;41716;51.910;4.430;2023-02-25T10:33:02;14.20;99.90
55795;DHT22;41716;51.910;4.430;2023-02-25T10:38:08;14.80;99.90
55795;DHT22;41716;51.910;4.430;2023-02-25T10:43:15;15.50;99.90
55795;DHT22;41716;51.910;4.430;2023-02-25T10:48:19;15.80;99.90
55795;DHT22;41716;51.910;4.430;2023-02-25T10:53:23;14.20;99.90
55795;DHT22;41716;51.910;4.430;2023-02-25T10:58:26;12.90;99.90
55795;DHT22;41716;51.910;4.430;2023-02-25T11:03:28;11.90;99.90
55795;DHT22;41716;51.910;4.430;2023-02-25T11:08:32;11.10;99.90
55795;DHT22;41716;51.910;4.430;2023-02-25T11:13:34;12.80;99.90
55795;DHT22;41716;51.910;4.430;2023-02-25T11:18:36;14.90;99.90
55795;DHT22;41716;51.910;4.430;2023-02-25T11:23:43;15.80;99.90
55795;DHT22;41716;51.910;4.430;2023-02-25T11:28:46;16.00;99.90
55795;DHT22;41716;51.910;4.430;2023-02-25T11:33:49;16.40;99.90
55795;DHT22;41716;51.910;4.430;2023-02-25T11:39:03;17.00;99.90
55795;DHT22;41716;51.910;4.430;2023-02-25T11:44:18;17.40;99.90
55795;DHT22;41716;51.910;4.430;2023-02-25T11:49:21;17.30;99.90
55795;DHT22;41716;51.910;4.430;2023-02-25T11:54:27;17.70;99.90
55795;DHT22;41716;51.910;4.430;2023-02-25T11:59:32;15.80;99.90
55795;DHT22;41716;51.910;4.430;2023-02-25T12:04:40;14.40;99.90
55795;DHT22;41716;51.910;4.430;2023-02-25T12:15:23;12.00;99.90
55795;DHT22;41716;51.910;4.430;2023-02-25T12:20:31;11.20;99.90
55795;DHT22;41716;51.910;4.430;2023-02-25T12:25:45;11.20;99.90
55795;DHT22;41716;51.910;4.430;2023-02-25T12:36:09;11.10;99.90
55795;DHT22;41716;51.910;4.430;2023-02-25T12:41:20;11.00;99.90
55795;DHT22;41716;51.910;4.430;2023-02-25T12:46:40;11.00;99.90
55795;DHT22;41716;51.910;4.430;2023-02-25T12:57:05;11.10;99.90
55795;DHT22;41716;51.910;4.430;2023-02-25T13:02:19;11.80;99.90
55795;DHT22;41716;51.910;4.430;2023-02-25T13:07:29;13.10;99.90
55795;DHT22;41716;51.910;4.430;2023-02-25T13:12:44;13.80;99.90
55795;DHT22;41716;51.910;4.430;2023-02-25T13:17:57;15.00;99.90
55795;DHT22;41716;51.910;4.430;2023-02-25T13:23:10;15.40;99.90
55795;DHT22;41716;51.910;4.430;2023-02-25T13:33:46;16.00;99.90
55795;DHT22;41716;51.910;4.430;2023-02-25T13:39:09;14.80;99.90
55795;DHT22;41716;51.910;4.430;2023-02-25T13:44:20;14.00;99.90
55795;DHT22;41716;51.910;4.430;2023-02-25T13:49:39;13.40;99.90
55795;DHT22;41716;51.910;4.430;2023-02-25T13:54:55;14.60;99.90
55795;DHT22;41716;51.910;4.430;2023-02-25T14:00:25;15.40;99.90
55795;DHT22;41716;51.910;4.430;2023-02-25T14:05:44;15.30;99.90
55795;DHT22;41716;51.910;4.430;2023-02-25T14:10:51;15.00;99.90
55795;DHT22;41716;51.910;4.430;2023-02-25T14:15:57;14.60;99.90
55795;DHT22;41716;51.910;4.430;2023-02-25T14:21:07;14.90;99.90
55795;DHT22;41716;51.910;4.430;2023-02-25T14:26:14;14.90;99.90
55795;DHT22;41716;51.910;4.430;2023-02-25T14:31:19;13.90;99.90
55795;DHT22;41716;51.910;4.430;2023-02-25T14:36:30;14.10;99.90
55795;DHT22;41716;51.910;4.430;2023-02-25T14:41:40;14.90;99.90
55795;DHT22;41716;51.910;4.430;2023-02-25T14:46:47;14.90;99.90
55795;DHT22;41716;51.910;4.430;2023-02-25T14:52:05;13.40;99.90
55795;DHT22;41716;51.910;4.430;2023-02-25T14:57:16;13.40;99.90
55795;DHT22;41716;51.910;4.430;2023-02-25T15:02:31;12.80;99.90
55795;DHT22;41716;51.910;4.430;2023-02-25T15:18:29;13.70;99.90
55795;DHT22;41716;51.910;4.430;2023-02-25T15:23:40;13.60;99.90
55795;DHT22;41716;51.910;4.430;2023-02-25T15:28:43;13.40;99.90
55795;DHT22;41716;51.910;4.430;2023-02-25T15:33:46;13.60;99.90
55795;DHT22;41716;51.910;4.430;2023-02-25T15:38:48;13.30;99.90
55795;DHT22;41716;51.910;4.430;2023-02-25T15:43:51;13.20;99.90
55795;DHT22;41716;51.910;4.430;2023-02-25T15:49:03;12.80;99.90
55795;DHT22;41716;51.910;4.430;2023-02-25T15:54:06;12.80;99.90
55795;DHT22;41716;51.910;4.430;2023-02-25T15:59:08;12.70;99.90
55795;DHT22;41716;51.910;4.430;2023-02-25T16:09:31;12.20;99.90
55795;DHT22;41716;51.910;4.430;2023-02-25T16:14:33;12.10;99.90
55795;DHT22;41716;51.910;4.430;2023-02-25T16:19:36;12.00;99.90
55795;DHT22;41716;51.910;4.430;2023-02-25T16:24:41;11.60;99.90
55795;DHT22;41716;51.910;4.430;2023-02-25T16:29:48;11.30;99.90
55795;DHT22;41716;51.910;4.430;2023-02-25T16:34:52;11.10;99.60
55795;DHT22;41716;51.910;4.430;2023-02-25T16:39:56;10.80;99.90
55795;DHT22;41716;51.910;4.430;2023-02-25T16:44:59;10.80;99.90
55795;DHT22;41716;51.910;4.430;2023-02-25T16:50:02;10.60;99.90
55795;DHT22;41716;51.910;4.430;2023-02-25T16:55:08;10.30;99.90
55795;DHT22;41716;51.910;4.430;2023-02-25T17:00:17;10.10;99.90
55795;DHT22;41716;51.910;4.430;2023-02-25T17:05:23;10.10;99.90
55795;DHT22;41716;51.910;4.430;2023-02-25T17:10:28;10.00;99.90
55795;DHT22;41716;51.910;4.430;2023-02-25T17:15:31;9.70;99.90
55795;DHT22;41716;51.910;4.430;2023-02-25T17:20:33;9.40;99.90
55795;DHT22;41716;51.910;4.430;2023-02-25T17:25:37;9.30;99.90
55795;DHT22;41716;51.910;4.430;2023-02-25T17:30:40;9.30;99.90
55795;DHT22;41716;51.910;4.430;2023-02-25T17:35:41;9.30;99.90
55795;DHT22;41716;51.910;4.430;2023-02-25T17:40:44;8.80;99.90
55795;DHT22;41716;51.910;4.430;2023-02-25T17:45:47;8.80;99.90
55795;DHT22;41716;51.910;4.430;2023-02-25T17:50:53;8.40;99.90
55795;DHT22;41716;51.910;4.430;2023-02-25T17:55:56;8.50;99.90
55795;DHT22;41716;51.910;4.430;2023-02-25T18:01:09;8.70;99.90
55795;DHT22;41716;51.910;4.430;2023-02-25T18:11:41;8.30;99.90
55795;DHT22;41716;51.910;4.430;2023-02-25T18:16:44;8.20;99.90
55795;DHT22;41716;51.910;4.430;2023-02-25T18:21:46;8.10;99.90
55795;DHT22;41716;51.910;4.430;2023-02-25T18:27:00;7.90;99.90
55795;DHT22;41716;51.910;4.430;2023-02-25T18:32:01;8.00;99.90
55795;DHT22;41716;51.910;4.430;2023-02-25T18:37:04;7.80;99.90
55795;DHT22;41716;51.910;4.430;2023-02-25T18:42:08;7.90;99.90
55795;DHT22;41716;51.910;4.430;2023-02-25T18:47:12;7.80;99.90
55795;DHT22;41716;51.910;4.430;2023-02-25T18:52:17;7.50;99.90
55795;DHT22;41716;51.910;4.430;2023-02-25T18:57:22;7.60;99.90
55795;DHT22;41716;51.910;4.430;2023-02-25T19:02:26;7.40;99.90
55795;DHT22;41716;51.910;4.430;2023-02-25T19:07:29;7.40;99.90
55795;DHT22;41716;51.910;4.430;2023-02-25T19:12:33;7.20;99.90
55795;DHT22;41716;51.910;4.430;2023-02-25T19:17:34;7.20;99.90
55795;DHT22;41716;51.910;4.430;2023-02-25T19:22:39;7.20;99.90
55795;DHT22;41716;51.910;4.430;2023-02-25T19:27:42;6.90;99.90
55795;DHT22;41716;51.910;4.430;2023-02-25T19:32:44;6.90;99.90
55795;DHT22;41716;51.910;4.430;2023-02-25T19:37:45;6.90;99.90
55795;DHT22;41716;51.910;4.430;2023-02-25T19:42:48;6.80;99.90
55795;DHT22;41716;51.910;4.430;2023-02-25T19:47:50;6.60;99.90
55795;DHT22;41716;51.910;4.430;2023-02-25T19:52:52;6.70;99.90
55795;DHT22;41716;51.910;4.430;2023-02-25T19:57:55;6.90;99.90
55795;DHT22;41716;51.910;4.430;2023-02-25T20:02:57;6.70;99.90
55795;DHT22;41716;51.910;4.430;2023-02-25T20:07:58;6.30;99.90
55795;DHT22;41716;51.910;4.430;2023-02-25T20:13:01;6.30;99.90
55795;DHT22;41716;51.910;4.430;2023-02-25T20:18:03;6.20;99.90
55795;DHT22;41716;51.910;4.430;2023-02-25T20:23:05;6.20;99.90
55795;DHT22;41716;51.910;4.430;2023-02-25T20:28:07;6.10;99.90
55795;DHT22;41716;51.910;4.430;2023-02-25T20:33:10;6.10;99.90
55795;DHT22;41716;51.910;4.430;2023-02-25T20:38:15;5.90;99.90
55795;DHT22;41716;51.910;4.430;2023-02-25T20:43:20;6.10;99.90
55795;DHT22;41716;51.910;4.430;2023-02-25T20:48:24;5.90;99.90
55795;DHT22;41716;51.910;4.430;2023-02-25T20:53:26;6.00;99.90
55795;DHT22;41716;51.910;4.430;2023-02-25T20:58:29;5.70;99.90
55795;DHT22;41716;51.910;4.430;2023-02-25T21:03:30;5.70;99.90
55795;DHT22;41716;51.910;4.430;2023-02-25T21:08:32;5.60;99.90
55795;DHT22;41716;51.910;4.430;2023-02-25T21:13:35;5.70;99.90
55795;DHT22;41716;51.910;4.430;2023-02-25T21:18:37;5.70;99.90
55795;DHT22;41716;51.910;4.430;2023-02-25T21:23:38;5.60;99.90
55795;DHT22;41716;51.910;4.430;2023-02-25T21:28:41;5.60;99.90
55795;DHT22;41716;51.910;4.430;2023-02-25T21:33:45;5.50;99.90
55795;DHT22;41716;51.910;4.430;2023-02-25T21:38:46;5.30;99.90
55795;DHT22;41716;51.910;4.430;2023-02-25T21:43:50;5.20;99.90
55795;DHT22;41716;51.910;4.430;2023-02-25T21:48:53;5.40;99.90
55795;DHT22;41716;51.910;4.430;2023-02-25T21:53:55;5.30;99.90
55795;DHT22;41716;51.910;4.430;2023-02-25T21:58:59;5.30;99.90
55795;DHT22;41716;51.910;4.430;2023-02-25T22:04:01;5.20;99.90
55795;DHT22;41716;51.910;4.430;2023-02-25T22:09:03;5.20;99.90
55795;DHT22;41716;51.910;4.430;2023-02-25T22:14:07;5.10;99.90
55795;DHT22;41716;51.910;4.430;2023-02-25T22:19:09;5.20;99.90
55795;DHT22;41716;51.910;4.430;2023-02-25T22:24:10;5.10;99.90
55795;DHT22;41716;51.910;4.430;2023-02-25T22:29:13;5.00;99.90
55795;DHT22;41716;51.910;4.430;2023-02-25T22:34:15;5.00;99.90
55795;DHT22;41716;51.910;4.430;2023-02-25T22:39:16;5.00;99.90
55795;DHT22;41716;51.910;4.430;2023-02-25T22:44:19;5.10;99.90
55795;DHT22;41716;51.910;4.430;2023-02-25T22:49:21;4.80;99.90
55795;DHT22;41716;51.910;4.430;2023-02-25T22:54:23;4.90;99.90
55795;DHT22;41716;51.910;4.430;2023-02-25T22:59:26;4.90;99.90
55795;DHT22;41716;51.910;4.430;2023-02-25T23:04:27;4.90;99.90
55795;DHT22;41716;51.910;4.430;2023-02-25T23:09:29;5.00;99.90
55795;DHT22;41716;51.910;4.430;2023-02-25T23:14:32;5.10;99.90
55795;DHT22;41716;51.910;4.430;2023-02-25T23:19:35;5.20;99.90
55795;DHT22;41716;51.910;4.430;2023-02-25T23:24:36;5.30;99.90
55795;DHT22;41716;51.910;4.430;2023-02-25T23:29:39;5.30;99.90
55795;DHT22;41716;51.910;4.430;2023-02-25T23:34:41;5.30;99.90
55795;DHT22;41716;51.910;4.430;2023-02-25T23:39:42;4.90;99.90
55795;DHT22;41716;51.910;4.430;2023-02-25T23:44:45;5.00;99.90
55795;DHT22;41716;51.910;4.430;2023-02-25T23:49:47;5.10;99.90
55795;DHT22;41716;51.910;4.430;2023-02-25T23:54:48;5.10;99.90
55795;DHT22;41716;51.910;4.430;2023-02-25T23:59:51;4.90;99.90
